Time;durP1;ratioP1;P1;durP2;ratioP2;P2;SDS_P1;SDS_P2;PMS_P1;PMS_P2;Temp;Humidity;BMP_temperature;BMP_pressure;BME280_temperature;BME280_humidity;BME280_pressure;Samples;Min_cycle;Max_cycle;Signal;HPM_P1;HPM_P2
2021/01/27 00:00:41;;;;;;;5.85;2.80;;;0.00;99.90;;;;;;5010402;28;20104;-72
2021/01/27 00:03:08;;;;;;;4.32;2.60;;;0.00;99.90;;;;;;5008506;28;20082;-72
2021/01/27 00:05:40;;;;;;;4.35;2.75;;;0.10;99.90;;;;;;5009119;28;20189;-72
2021/01/27 00:08:07;;;;;;;4.82;2.63;;;0.00;99.90;;;;;;5009964;28;20081;-73
2021/01/27 00:10:34;;;;;;;5.75;2.85;;;0.00;99.90;;;;;;5009715;28;20169;-72
2021/01/27 00:13:01;;;;;;;5.22;2.97;;;-0.10;99.90;;;;;;5004977;28;20079;-71
2021/01/27 00:15:30;;;;;;;5.93;3.35;;;-0.10;99.90;;;;;;5001318;28;20102;-74
2021/01/27 00:17:57;;;;;;;4.70;3.42;;;-0.20;99.90;;;;;;5006945;28;20875;-73
2021/01/27 00:20:25;;;;;;;5.82;3.50;;;-0.10;99.90;;;;;;4994527;28;20086;-73
2021/01/27 00:22:51;;;;;;;6.57;3.47;;;-0.10;99.90;;;;;;4991988;28;20078;-74
2021/01/27 00:25:19;;;;;;;5.82;3.58;;;-0.20;99.90;;;;;;4987669;28;20502;-73
2021/01/27 00:27:45;;;;;;;6.57;4.32;;;-0.20;99.90;;;;;;4990313;28;20126;-74
2021/01/27 00:30:14;;;;;;;7.53;4.68;;;-0.20;99.90;;;;;;5014453;28;20106;-72
2021/01/27 00:32:39;;;;;;;4.72;3.55;;;-0.10;99.90;;;;;;5002745;28;20081;-74
2021/01/27 00:35:07;;;;;;;4.95;3.70;;;-0.10;99.90;;;;;;4997244;28;20098;-75
2021/01/27 00:37:33;;;;;;;4.80;3.33;;;0.00;99.90;;;;;;5014065;28;20542;-73
2021/01/27 00:39:58;;;;;;;5.38;3.47;;;0.00;99.90;;;;;;5009738;28;20110;-73
2021/01/27 00:42:24;;;;;;;4.47;3.10;;;-0.10;99.90;;;;;;5006396;28;20168;-73
2021/01/27 00:44:49;;;;;;;8.27;3.28;;;0.00;99.90;;;;;;4999026;28;20140;-73
2021/01/27 00:47:15;;;;;;;5.13;3.65;;;0.10;99.90;;;;;;5005414;28;20113;-73
2021/01/27 00:49:40;;;;;;;4.63;2.60;;;0.10;99.90;;;;;;4997776;28;20079;-73
2021/01/27 00:52:06;;;;;;;4.82;3.67;;;0.00;99.90;;;;;;5002562;28;20074;-73
2021/01/27 00:54:31;;;;;;;4.45;2.92;;;0.00;99.90;;;;;;5001991;28;20086;-73
2021/01/27 00:56:57;;;;;;;5.63;3.30;;;-0.10;99.90;;;;;;4995703;28;20087;-73
2021/01/27 00:59:22;;;;;;;2.75;2.45;;;-0.10;99.90;;;;;;4994903;28;20100;-73
2021/01/27 01:01:48;;;;;;;3.33;2.47;;;-0.10;99.90;;;;;;4988613;28;20074;-73
2021/01/27 01:04:14;;;;;;;4.85;2.60;;;-0.10;99.90;;;;;;4991024;28;20209;-73
2021/01/27 01:06:39;;;;;;;3.42;2.60;;;0.00;99.90;;;;;;4988132;28;20264;-73
2021/01/27 01:09:05;;;;;;;4.15;2.15;;;0.00;99.90;;;;;;5001038;28;20434;-74
2021/01/27 01:11:31;;;;;;;7.35;2.53;;;0.00;99.90;;;;;;4998016;28;20160;-73
2021/01/27 01:13:57;;;;;;;4.75;2.78;;;0.10;99.90;;;;;;5002898;28;20083;-74
2021/01/27 01:16:22;;;;;;;9.40;3.03;;;0.10;99.90;;;;;;4988283;28;20766;-74
2021/01/27 01:18:48;;;;;;;4.65;2.53;;;0.10;99.90;;;;;;4988538;28;20149;-72
2021/01/27 01:21:13;;;;;;;6.72;2.50;;;0.10;99.90;;;;;;4989538;28;20109;-74
2021/01/27 01:23:41;;;;;;;4.72;2.63;;;0.10;99.90;;;;;;4997935;28;20170;-73
2021/01/27 01:26:07;;;;;;;3.35;1.88;;;0.10;99.90;;;;;;4994297;28;20554;-72
2021/01/27 01:28:33;;;;;;;3.67;2.35;;;0.10;99.90;;;;;;5001442;28;20137;-74
2021/01/27 01:30:58;;;;;;;5.28;2.00;;;0.10;99.90;;;;;;4989857;28;20141;-74
2021/01/27 01:33:29;;;;;;;3.95;1.92;;;0.10;99.90;;;;;;4987158;28;20101;-74
2021/01/27 01:35:55;;;;;;;6.10;2.08;;;0.10;99.90;;;;;;4986416;28;20118;-74
2021/01/27 01:38:22;;;;;;;3.08;1.98;;;0.20;99.90;;;;;;4990013;28;20177;-74
2021/01/27 01:41:02;;;;;;;4.97;2.42;;;0.10;99.90;;;;;;4993254;28;20082;-74
2021/01/27 01:43:33;;;;;;;3.28;2.55;;;0.10;99.90;;;;;;4989514;28;20148;-74
2021/01/27 01:46:00;;;;;;;3.08;2.28;;;0.20;99.90;;;;;;4987470;28;20192;-71
2021/01/27 01:48:31;;;;;;;3.08;2.25;;;0.10;99.90;;;;;;4988352;28;20098;-73
2021/01/27 01:51:20;;;;;;;5.18;1.92;;;0.10;99.90;;;;;;4987350;28;20082;-72
2021/01/27 01:53:49;;;;;;;3.13;2.05;;;0.10;99.90;;;;;;4988717;28;20081;-74
2021/01/27 01:56:19;;;;;;;4.13;1.90;;;0.10;99.90;;;;;;4987308;28;20145;-72
2021/01/27 01:58:45;;;;;;;5.20;2.45;;;0.10;99.90;;;;;;4987432;28;20572;-73
2021/01/27 02:01:11;;;;;;;3.67;2.10;;;0.10;99.90;;;;;;4987602;28;20085;-73
2021/01/27 02:03:39;;;;;;;3.40;2.10;;;0.20;99.90;;;;;;4987979;28;20155;-71
2021/01/27 02:06:08;;;;;;;2.38;1.85;;;0.30;99.90;;;;;;5006275;28;20102;-74
2021/01/27 02:08:37;;;;;;;5.28;1.85;;;0.20;99.90;;;;;;5000808;28;20097;-73
2021/01/27 02:11:03;;;;;;;3.90;2.17;;;0.20;99.90;;;;;;4986469;28;20102;-73
2021/01/27 02:13:39;;;;;;;4.90;1.88;;;0.20;99.90;;;;;;4987587;28;20075;-73
2021/01/27 02:16:29;;;;;;;2.55;1.80;;;0.20;99.90;;;;;;4986734;28;20117;-74
2021/01/27 02:19:32;;;;;;;3.60;2.15;;;0.10;99.90;;;;;;4989658;28;20110;-73
2021/01/27 02:22:52;;;;;;;3.38;2.10;;;0.10;99.90;;;;;;4994946;28;20450;-74
2021/01/27 02:25:51;;;;;;;3.72;1.75;;;0.10;99.90;;;;;;5000158;28;20117;-72
2021/01/27 02:28:30;;;;;;;4.75;1.60;;;0.10;99.90;;;;;;4990063;28;20081;-73
2021/01/27 02:31:13;;;;;;;3.10;1.70;;;0.10;99.90;;;;;;4991798;28;20083;-73
2021/01/27 02:33:56;;;;;;;4.00;2.10;;;0.00;99.90;;;;;;4996242;28;20074;-72
2021/01/27 02:36:23;;;;;;;4.95;1.90;;;0.00;99.90;;;;;;4989059;28;20094;-73
2021/01/27 02:38:57;;;;;;;3.30;1.58;;;0.10;99.90;;;;;;4991034;28;20075;-73
2021/01/27 02:41:39;;;;;;;2.45;1.50;;;0.10;99.90;;;;;;4987220;28;20420;-72
2021/01/27 02:44:11;;;;;;;4.18;1.80;;;0.10;99.90;;;;;;4997314;28;20080;-72
2021/01/27 02:46:43;;;;;;;3.53;1.63;;;0.10;99.90;;;;;;5004466;28;20543;-72
2021/01/27 02:49:12;;;;;;;5.30;2.20;;;0.10;99.90;;;;;;4992616;28;20082;-72
2021/01/27 02:51:46;;;;;;;3.67;1.90;;;0.00;99.90;;;;;;5008914;28;20101;-75
2021/01/27 02:54:20;;;;;;;6.38;2.17;;;0.10;99.90;;;;;;4997830;28;20181;-72
2021/01/27 02:56:52;;;;;;;5.53;2.15;;;0.00;99.90;;;;;;4987993;28;20293;-73
2021/01/27 02:59:32;;;;;;;3.38;1.70;;;0.10;99.90;;;;;;4995071;28;20162;-73
2021/01/27 03:02:07;;;;;;;3.67;2.20;;;0.20;99.90;;;;;;4999262;28;20485;-74
2021/01/27 03:04:40;;;;;;;2.78;1.90;;;0.10;99.90;;;;;;5000956;28;20197;-72
2021/01/27 03:07:08;;;;;;;4.53;2.00;;;0.20;99.90;;;;;;4988713;28;20512;-73
2021/01/27 03:09:42;;;;;;;5.00;1.73;;;0.20;99.90;;;;;;4987318;28;20078;-74
2021/01/27 03:12:09;;;;;;;2.22;1.75;;;0.20;99.90;;;;;;4998927;28;20108;-74
2021/01/27 03:14:35;;;;;;;3.65;1.75;;;0.30;99.90;;;;;;4995936;28;20458;-72
2021/01/27 03:17:05;;;;;;;2.90;1.80;;;0.20;99.90;;;;;;4991740;28;20132;-72
2021/01/27 03:19:38;;;;;;;4.30;2.22;;;0.10;99.90;;;;;;5002227;28;20085;-72
2021/01/27 03:22:23;;;;;;;6.90;1.90;;;0.00;99.90;;;;;;4996731;22;20111;-76
2021/01/27 03:24:51;;;;;;;;;;;0.10;99.90;;;;;;4988685;28;20086;-76
2021/01/27 03:27:26;;;;;;;2.03;1.30;;;0.20;99.90;;;;;;4993628;28;20009;-77
2021/01/27 03:29:55;;;;;;;2.92;1.83;;;0.30;99.90;;;;;;4971654;28;20559;-77
2021/01/27 03:32:42;;;;;;;2.90;1.70;;;0.20;99.90;;;;;;4975715;28;20119;-76
2021/01/27 03:35:33;;;;;;;4.93;2.67;;;0.20;99.90;;;;;;4971657;28;20075;-76
2021/01/27 03:38:28;;;;;;;5.38;2.10;;;0.30;99.90;;;;;;4972697;28;20079;-76
2021/01/27 03:40:58;;;;;;;4.20;1.80;;;0.30;99.90;;;;;;4975453;28;20185;-77
2021/01/27 03:43:35;;;;;;;4.18;1.70;;;0.10;99.90;;;;;;4974798;28;20117;-76
2021/01/27 03:46:09;;;;;;;4.80;1.67;;;0.10;99.90;;;;;;4972005;28;20091;-77
2021/01/27 03:48:38;;;;;;;2.17;1.45;;;0.00;99.90;;;;;;4971946;28;20075;-77
2021/01/27 03:51:05;;;;;;;2.47;1.80;;;0.00;99.90;;;;;;4983396;28;20087;-76
2021/01/27 03:53:33;;;;;;;4.57;1.90;;;-0.10;99.90;;;;;;4980684;28;20070;-76
2021/01/27 03:56:02;;;;;;;4.60;2.13;;;-0.10;99.90;;;;;;4993058;28;20166;-78
2021/01/27 03:58:34;;;;;;;4.25;2.00;;;-0.20;99.90;;;;;;4986186;28;20175;-77
2021/01/27 04:01:21;;;;;;;4.43;2.00;;;-0.20;99.90;;;;;;4992713;28;20083;-77
2021/01/27 04:03:53;;;;;;;5.75;1.60;;;-0.30;99.90;;;;;;4985874;28;20585;-77
2021/01/27 04:06:19;;;;;;;2.53;1.88;;;-0.30;99.90;;;;;;4972973;28;20111;-76
2021/01/27 04:08:44;;;;;;;2.60;1.40;;;-0.20;99.90;;;;;;4972249;28;20080;-78
2021/01/27 04:11:10;;;;;;;3.00;1.73;;;-0.20;99.90;;;;;;4974497;28;20133;-76
2021/01/27 04:13:36;;;;;;;3.60;1.98;;;-0.10;99.90;;;;;;4990738;28;20081;-77
2021/01/27 04:16:02;;;;;;;3.78;1.88;;;-0.10;99.90;;;;;;4991086;28;20087;-76
2021/01/27 04:18:28;;;;;;;2.72;1.73;;;-0.20;99.90;;;;;;4992665;28;20085;-77
2021/01/27 04:20:55;;;;;;;5.28;1.98;;;-0.20;99.90;;;;;;4984229;28;20106;-77
2021/01/27 04:23:20;;;;;;;3.65;1.58;;;-0.20;99.90;;;;;;4996372;28;20473;-76
2021/01/27 04:25:46;;;;;;;2.38;2.05;;;-0.10;99.90;;;;;;4973477;28;20087;-76
2021/01/27 04:28:12;;;;;;;2.67;1.50;;;-0.10;99.90;;;;;;4975758;28;20559;-77
2021/01/27 04:30:38;;;;;;;1.95;1.20;;;-0.10;99.90;;;;;;4995596;28;20074;-76
2021/01/27 04:33:06;;;;;;;4.35;1.83;;;-0.30;99.90;;;;;;4984648;28;20082;-77
2021/01/27 04:35:33;;;;;;;2.03;1.52;;;-0.40;99.90;;;;;;4974032;28;20474;-77
2021/01/27 04:37:59;;;;;;;4.60;2.00;;;-0.50;99.90;;;;;;4975413;28;20161;-75
2021/01/27 04:40:41;;;;;;;3.42;1.42;;;-0.50;99.90;;;;;;4985786;28;20075;-76
2021/01/27 04:43:27;;;;;;;3.17;1.35;;;-0.70;99.90;;;;;;4982062;28;20575;-76
2021/01/27 04:46:21;;;;;;;2.28;2.05;;;-0.40;99.90;;;;;;4974200;28;20103;-75
2021/01/27 04:48:59;;;;;;;1.98;1.30;;;-0.30;99.90;;;;;;4980182;28;20617;-76
2021/01/27 04:51:55;;;;;;;5.13;1.85;;;-0.50;99.90;;;;;;4976733;28;20126;-76
2021/01/27 04:54:58;;;;;;;2.85;1.35;;;-0.70;99.90;;;;;;4985052;28;20075;-77
2021/01/27 04:57:24;;;;;;;2.45;1.60;;;-0.80;99.90;;;;;;4993594;28;20404;-76
2021/01/27 05:00:15;;;;;;;2.22;1.73;;;-0.80;99.90;;;;;;4988189;28;20547;-76
2021/01/27 05:03:19;;;;;;;3.50;1.92;;;-0.60;99.90;;;;;;4962360;28;20126;-77
2021/01/27 05:05:52;;;;;;;2.42;2.10;;;-1.00;99.90;;;;;;4972381;28;20091;-77
2021/01/27 05:08:44;;;;;;;3.83;1.88;;;-1.20;99.90;;;;;;4999891;28;20102;-77
2021/01/27 05:11:12;;;;;;;8.30;2.42;;;-1.40;99.90;;;;;;4968829;28;20162;-77
2021/01/27 05:13:46;;;;;;;4.70;2.65;;;-1.40;99.90;;;;;;4977788;28;20067;-76
2021/01/27 05:16:15;;;;;;;6.30;2.45;;;-1.80;99.90;;;;;;4987653;28;20144;-77
2021/01/27 05:18:41;;;;;;;3.93;1.43;;;-1.90;99.90;;;;;;4984380;28;20071;-76
2021/01/27 05:21:23;;;;;;;3.43;1.77;;;-2.20;99.90;;;;;;4982422;28;20083;-78
2021/01/27 05:23:49;;;;;;;4.37;2.60;;;-2.40;99.90;;;;;;4990326;28;20602;-76
2021/01/27 05:26:16;;;;;;;3.77;2.60;;;-2.60;99.90;;;;;;4983129;28;20179;-76
2021/01/27 05:28:46;;;;;;;7.37;3.53;;;-2.50;99.90;;;;;;4990255;28;20067;-76
2021/01/27 05:31:11;;;;;;;5.77;2.97;;;-2.50;99.90;;;;;;5002216;28;20535;-76
2021/01/27 05:33:51;;;;;;;4.77;2.10;;;-2.40;99.90;;;;;;4971838;28;20083;-76
2021/01/27 05:36:21;;;;;;;4.50;2.27;;;-2.70;99.90;;;;;;4971569;28;20097;-77
2021/01/27 05:38:48;;;;;;;4.23;1.97;;;-3.00;99.90;;;;;;4978409;28;20103;-76
2021/01/27 05:41:21;;;;;;;3.50;1.70;;;-3.40;99.90;;;;;;4969624;28;20542;-76
2021/01/27 05:43:49;;;;;;;2.00;1.10;;;-3.70;99.90;;;;;;4976790;28;20490;-76
2021/01/27 05:46:31;;;;;;;3.83;2.20;;;-3.80;99.90;;;;;;4969680;28;20099;-76
2021/01/27 05:48:57;;;;;;;6.60;2.47;;;-3.80;99.90;;;;;;4979921;28;20614;-77
2021/01/27 05:51:35;;;;;;;7.03;3.20;;;-4.00;99.90;;;;;;4979668;28;20132;-77
2021/01/27 05:54:18;;;;;;;3.63;1.60;;;-4.00;99.90;;;;;;4987470;28;20539;-78
2021/01/27 05:56:50;;;;;;;2.17;1.40;;;-4.10;99.90;;;;;;4992858;28;20137;-77
2021/01/27 05:59:25;;;;;;;2.63;1.70;;;-3.90;99.90;;;;;;4980920;28;20083;-76
2021/01/27 06:01:52;;;;;;;;;;;-4.20;99.90;;;;;;4973269;28;20107;-76
2021/01/27 06:04:20;;;;;;;3.63;1.70;;;-4.40;99.90;;;;;;4966647;28;20034;-76
2021/01/27 06:06:46;;;;;;;2.23;1.53;;;-4.50;99.90;;;;;;4978059;28;20086;-75
2021/01/27 06:09:12;;;;;;;3.33;1.67;;;-4.50;99.90;;;;;;4973466;28;20078;-76
2021/01/27 06:11:38;;;;;;;3.17;1.77;;;-4.60;99.90;;;;;;4975860;28;20087;-76
2021/01/27 06:14:08;;;;;;;1.97;1.30;;;-4.60;99.90;;;;;;4976768;28;20161;-75
2021/01/27 06:16:45;;;;;;;3.23;1.57;;;-4.30;99.90;;;;;;4984731;28;20079;-77
2021/01/27 06:19:13;;;;;;;4.00;2.03;;;-4.20;99.90;;;;;;4970044;28;20547;-76
2021/01/27 06:22:11;;;;;;;3.93;1.77;;;-4.10;99.90;;;;;;4975273;28;20103;-75
2021/01/27 06:25:06;;;;;;;4.93;1.53;;;-4.50;99.90;;;;;;4986535;28;20170;-76
2021/01/27 06:27:38;;;;;;;;;;;-4.60;99.90;;;;;;4969730;28;20715;-76
2021/01/27 06:30:29;;;;;;;3.67;1.43;;;-4.60;99.90;;;;;;4970969;28;19966;-75
2021/01/27 06:33:25;;;;;;;2.87;1.47;;;-4.50;99.90;;;;;;4962784;28;20629;-76
2021/01/27 06:36:05;;;;;;;2.70;1.30;;;-4.40;99.90;;;;;;4990595;28;20078;-76
2021/01/27 06:38:58;;;;;;;3.70;1.13;;;-4.50;99.90;;;;;;4999213;28;20153;-76
2021/01/27 06:41:24;;;;;;;3.73;1.30;;;-4.60;99.90;;;;;;4986482;28;20107;-76
2021/01/27 06:44:01;;;;;;;2.60;1.83;;;-4.60;99.90;;;;;;4978030;28;20110;-77
2021/01/27 06:46:54;;;;;;;2.20;1.50;;;-4.60;99.90;;;;;;4973259;28;20091;-76
2021/01/27 06:49:22;;;;;;;2.03;1.20;;;-4.60;99.90;;;;;;4996359;28;20090;-78
2021/01/27 06:52:00;;;;;;;2.13;1.17;;;-4.80;99.90;;;;;;4984962;28;20122;-76
2021/01/27 06:54:56;;;;;;;5.77;1.43;;;-5.10;99.90;;;;;;4973352;28;20186;-77
2021/01/27 06:57:25;;;;;;;2.30;1.60;;;-5.20;99.90;;;;;;4974067;28;20106;-84
2021/01/27 07:00:28;;;;;;;3.03;1.37;;;-5.20;99.90;;;;;;4986343;28;20144;-79
2021/01/27 07:03:16;;;;;;;4.27;1.83;;;-5.20;99.90;;;;;;5002946;28;20465;-78
2021/01/27 07:05:50;;;;;;;2.53;1.37;;;-5.20;99.90;;;;;;4962673;28;20090;-78
2021/01/27 07:08:28;;;;;;;2.13;1.42;;;-5.20;99.90;;;;;;4981336;28;20142;-79
2021/01/27 07:11:09;;;;;;;2.17;1.37;;;-5.20;99.90;;;;;;4993792;28;20083;-78
2021/01/27 07:14:06;;;;;;;5.03;1.43;;;-5.10;99.90;;;;;;4978194;28;20458;-78
2021/01/27 07:16:50;;;;;;;3.53;1.77;;;-5.10;99.90;;;;;;4987882;28;20083;-76
2021/01/27 07:19:53;;;;;;;3.17;1.50;;;-5.10;99.90;;;;;;4980594;28;20166;-78
2021/01/27 07:22:29;;;;;;;3.13;1.70;;;-5.20;99.90;;;;;;4968111;28;20123;-76
2021/01/27 07:25:04;;;;;;;4.60;1.47;;;-5.30;99.90;;;;;;4976332;28;20098;-77
2021/01/27 07:27:34;;;;;;;4.40;1.33;;;-5.20;99.90;;;;;;4973559;28;20466;-78
2021/01/27 07:30:21;;;;;;;5.43;1.30;;;-5.10;99.90;;;;;;4972578;28;20499;-78
2021/01/27 07:32:55;;;;;;;4.53;1.60;;;-4.80;99.90;;;;;;4973808;28;20171;-76
2021/01/27 07:36:01;;;;;;;3.90;1.38;;;-4.40;99.90;;;;;;4967625;28;20075;-78
2021/01/27 07:38:32;;;;;;;2.05;1.20;;;-4.30;99.90;;;;;;4976944;28;20090;-77
2021/01/27 07:41:01;;;;;;;1.97;1.23;;;-4.60;99.90;;;;;;4980567;28;20079;-81
2021/01/27 07:43:37;;;;;;;1.60;1.23;;;-4.60;99.90;;;;;;4980360;28;20091;-80
2021/01/27 07:46:03;;;;;;;5.47;1.27;;;-4.70;99.90;;;;;;4984199;28;20117;-79
2021/01/27 07:48:52;;;;;;;1.80;1.27;;;-4.60;99.90;;;;;;5002579;28;20075;-84
2021/01/27 07:51:25;;;;;;;3.27;1.30;;;-4.50;99.90;;;;;;4980656;28;20075;-85
2021/01/27 07:54:05;;;;;;;2.13;1.10;;;-4.40;99.90;;;;;;4993964;28;20078;-80
2021/01/27 07:56:48;;;;;;;2.80;1.10;;;-3.80;99.90;;;;;;4982180;28;20075;-78
2021/01/27 07:59:27;;;;;;;2.23;1.20;;;-3.50;99.90;;;;;;5004572;28;20083;-79
2021/01/27 08:02:04;;;;;;;1.53;1.10;;;-3.30;99.90;;;;;;4988875;28;20129;-79
2021/01/27 08:04:46;;;;;;;4.27;1.53;;;-3.50;99.90;;;;;;4979324;28;20113;-78
2021/01/27 08:07:18;;;;;;;3.20;1.87;;;-3.30;99.90;;;;;;4972478;28;20892;-77
2021/01/27 08:09:44;;;;;;;2.00;1.30;;;-3.20;99.90;;;;;;4973422;28;20083;-78
2021/01/27 08:12:38;;;;;;;2.70;1.43;;;-3.20;99.90;;;;;;4971580;28;20118;-77
2021/01/27 08:15:33;;;;;;;2.37;1.40;;;-3.30;99.90;;;;;;4979432;28;20087;-83
2021/01/27 08:18:12;;;;;;;2.10;1.30;;;-3.50;99.90;;;;;;4984712;28;20157;-77
2021/01/27 08:20:42;;;;;;;2.13;1.83;;;-3.60;99.90;;;;;;4979805;28;20079;-79
2021/01/27 08:23:21;;;;;;;2.70;1.50;;;-3.30;99.90;;;;;;4975390;28;20311;-79
2021/01/27 08:25:58;;;;;;;3.77;1.47;;;-3.20;99.90;;;;;;4980114;28;20167;-80
2021/01/27 08:28:24;;;;;;;2.73;1.10;;;-3.30;99.90;;;;;;4983648;28;20085;-80
2021/01/27 08:31:08;;;;;;;3.33;1.30;;;-3.40;99.90;;;;;;5004041;28;20161;-81
2021/01/27 08:33:42;;;;;;;3.43;1.20;;;-3.30;99.90;;;;;;4992077;28;20162;-79
2021/01/27 08:36:15;;;;;;;2.95;1.67;;;-3.10;99.90;;;;;;4997365;28;21046;-80
2021/01/27 08:39:07;;;;;;;2.90;1.33;;;-2.90;99.90;;;;;;4994007;28;20539;-78
2021/01/27 08:42:00;;;;;;;2.57;1.20;;;-2.50;99.90;;;;;;4988736;28;20099;-78
2021/01/27 08:44:36;;;;;;;2.90;1.20;;;-2.20;99.90;;;;;;4986616;28;20079;-77
2021/01/27 08:47:35;;;;;;;3.43;1.47;;;-1.90;99.90;;;;;;4983688;28;20748;-78
2021/01/27 08:50:01;;;;;;;2.57;1.57;;;-2.00;99.90;;;;;;4982510;28;20121;-83
2021/01/27 08:52:27;;;;;;;1.67;1.30;;;-2.20;99.90;;;;;;4980626;28;20575;-84
2021/01/27 08:54:53;;;;;;;2.93;1.43;;;-2.10;99.90;;;;;;4987470;28;20094;-77
2021/01/27 08:57:36;;;;;;;2.20;1.50;;;-2.00;99.90;;;;;;4977544;28;20075;-77
2021/01/27 09:00:02;;;;;;;2.33;1.30;;;-1.80;99.90;;;;;;4988934;28;20514;-77
2021/01/27 09:02:45;;;;;;;3.33;1.40;;;-1.70;99.90;;;;;;4984244;28;20111;-78
2021/01/27 09:05:20;;;;;;;2.67;1.53;;;-1.70;99.90;;;;;;4985657;28;20175;-79
2021/01/27 09:07:49;;;;;;;3.13;1.58;;;-1.80;99.90;;;;;;4971662;28;20081;-78
2021/01/27 09:10:16;;;;;;;1.80;1.07;;;-1.70;99.90;;;;;;4977390;28;20134;-78
2021/01/27 09:12:45;;;;;;;3.00;1.27;;;-1.50;99.90;;;;;;4979096;28;20095;-77
2021/01/27 09:15:31;;;;;;;1.90;1.13;;;-1.40;99.90;;;;;;4974318;28;20079;-77
2021/01/27 09:17:59;;;;;;;3.30;1.33;;;-1.40;99.90;;;;;;4984503;28;20090;-77
2021/01/27 09:20:28;;;;;;;3.03;1.97;;;-1.10;99.90;;;;;;4997534;28;20110;-77
2021/01/27 09:23:02;;;;;;;3.00;1.50;;;-1.00;99.90;;;;;;4979196;28;20158;-77
2021/01/27 09:25:29;;;;;;;;;;;-0.90;99.90;;;;;;4990075;28;20091;-77
2021/01/27 09:28:07;;;;;;;1.80;1.20;;;-0.70;99.90;;;;;;4981437;28;19973;-80
2021/01/27 09:30:33;;;;;;;1.90;1.20;;;-0.60;99.90;;;;;;4980419;28;20102;-78
2021/01/27 09:33:14;;;;;;;4.00;1.93;;;-0.60;99.90;;;;;;4982471;28;20139;-78
2021/01/27 09:35:42;;;;;;;2.60;1.60;;;-0.60;99.90;;;;;;4990948;28;20105;-79
2021/01/27 09:38:10;;;;;;;3.27;2.13;;;-0.50;99.90;;;;;;4983956;28;20080;-75
2021/01/27 09:40:58;;;;;;;1.80;1.40;;;-0.40;99.90;;;;;;4974856;28;20503;-75
2021/01/27 09:43:25;;;;;;;2.47;2.03;;;-0.40;99.90;;;;;;4979216;28;20099;-76
2021/01/27 09:45:52;;;;;;;2.92;1.58;;;-0.50;99.90;;;;;;4985734;28;20099;-76
2021/01/27 09:48:20;;;;;;;2.92;1.63;;;-0.50;99.90;;;;;;4988156;28;20075;-76
2021/01/27 09:50:52;;;;;;;3.22;1.67;;;-0.40;99.90;;;;;;4978075;28;20103;-75
2021/01/27 09:53:44;;;;;;;1.98;1.25;;;-0.30;99.90;;;;;;4983446;28;20119;-76
2021/01/27 09:56:15;;;;;;;2.40;1.80;;;-0.30;99.90;;;;;;4976148;28;20142;-76
2021/01/27 09:58:42;;;;;;;2.75;1.77;;;-0.20;99.90;;;;;;4972199;28;20078;-76
2021/01/27 10:01:15;;;;;;;1.55;1.27;;;-0.20;99.90;;;;;;4982073;28;20109;-77
2021/01/27 10:03:43;;;;;;;4.15;2.17;;;-0.10;99.90;;;;;;4989032;28;20075;-76
2021/01/27 10:06:29;;;;;;;2.17;1.50;;;0.00;99.90;;;;;;4973669;28;20105;-76
2021/01/27 10:08:57;;;;;;;2.13;1.48;;;0.00;99.90;;;;;;4972820;28;20089;-76
2021/01/27 10:11:29;;;;;;;3.30;1.92;;;0.00;99.90;;;;;;5000097;28;20071;-78
2021/01/27 10:14:01;;;;;;;3.50;2.10;;;0.00;99.90;;;;;;4974864;28;20122;-77
2021/01/27 10:16:26;;;;;;;2.67;1.77;;;0.10;99.90;;;;;;4969588;28;20075;-76
2021/01/27 10:19:05;;;;;;;1.60;1.50;;;0.30;99.90;;;;;;4970805;28;20147;-76
2021/01/27 10:21:41;;;;;;;3.13;1.85;;;0.30;99.90;;;;;;4971331;28;20102;-76
2021/01/27 10:24:07;;;;;;;4.90;3.17;;;0.30;99.90;;;;;;4972884;28;20079;-75
2021/01/27 10:26:41;;;;;;;2.97;1.90;;;0.30;99.90;;;;;;4982951;28;20156;-77
2021/01/27 10:29:16;;;;;;;3.70;2.38;;;0.30;99.90;;;;;;4975803;28;20110;-77
2021/01/27 10:31:44;;;;;;;1.85;1.50;;;0.30;99.90;;;;;;4981878;28;20094;-77
2021/01/27 10:34:09;;;;;;;3.97;1.98;;;0.40;99.90;;;;;;4992151;28;20106;-78
2021/01/27 10:36:38;;;;;;;3.25;2.28;;;0.40;99.90;;;;;;4987166;28;20570;-78
2021/01/27 10:39:22;;;;;;;3.35;2.00;;;0.40;99.90;;;;;;4979895;28;20083;-78
2021/01/27 10:41:53;;;;;;;5.55;2.50;;;0.50;99.90;;;;;;4986205;28;20106;-78
2021/01/27 10:44:34;;;;;;;3.88;2.25;;;0.50;99.90;;;;;;4982694;28;20079;-78
2021/01/27 10:47:09;;;;;;;3.10;2.08;;;0.60;99.90;;;;;;4984284;28;20083;-78
2021/01/27 10:49:41;;;;;;;2.33;1.73;;;0.70;99.90;;;;;;4974141;28;20074;-77
2021/01/27 10:52:10;;;;;;;2.50;1.90;;;0.70;99.90;;;;;;4970962;28;20087;-78
2021/01/27 10:54:37;;;;;;;4.13;2.25;;;0.80;99.90;;;;;;4989648;28;20089;-78
2021/01/27 10:57:03;;;;;;;2.83;1.83;;;0.80;99.90;;;;;;4978616;28;20579;-77
2021/01/27 10:59:29;;;;;;;2.88;2.15;;;0.90;99.90;;;;;;4982411;28;20078;-78
2021/01/27 11:01:54;;;;;;;2.85;2.00;;;0.80;99.90;;;;;;5002128;28;20095;-79
2021/01/27 11:04:20;;;;;;;2.97;1.92;;;0.80;99.90;;;;;;4976109;28;20089;-81
2021/01/27 11:06:46;;;;;;;3.30;2.00;;;0.80;99.90;;;;;;4970785;28;20082;-79
2021/01/27 11:09:11;;;;;;;3.33;2.42;;;0.80;99.90;;;;;;4985584;28;20535;-79
2021/01/27 11:11:37;;;;;;;3.03;1.98;;;0.80;99.90;;;;;;4987941;28;20099;-80
2021/01/27 11:14:04;;;;;;;3.42;2.08;;;0.90;99.90;;;;;;4984987;28;20080;-79
2021/01/27 11:16:30;;;;;;;3.13;2.00;;;1.00;99.90;;;;;;5003593;28;20083;-77
2021/01/27 11:18:55;;;;;;;2.85;2.17;;;1.00;99.90;;;;;;4985221;28;20091;-78
2021/01/27 11:21:21;;;;;;;3.88;2.13;;;1.00;99.90;;;;;;4976307;28;20182;-77
2021/01/27 11:23:47;;;;;;;5.28;2.03;;;1.10;99.90;;;;;;4990411;28;20083;-77
2021/01/27 11:26:19;;;;;;;3.17;2.10;;;1.20;99.90;;;;;;4994875;28;20190;-76
2021/01/27 11:28:46;;;;;;;2.80;1.75;;;1.20;99.90;;;;;;4981947;28;20085;-77
2021/01/27 11:31:12;;;;;;;11.20;6.05;;;1.20;99.90;;;;;;4984196;28;20079;-76
2021/01/27 11:33:38;;;;;;;13.30;6.88;;;1.20;99.50;;;;;;4977337;28;20157;-77
2021/01/27 11:36:04;;;;;;;10.20;5.70;;;1.30;99.90;;;;;;4991963;28;20182;-79
2021/01/27 11:38:29;;;;;;;12.40;3.58;;;1.30;99.90;;;;;;4988844;28;20086;-78
2021/01/27 11:40:55;;;;;;;2.70;1.92;;;1.40;99.90;;;;;;4973675;28;20079;-78
2021/01/27 11:43:21;;;;;;;4.78;2.47;;;1.30;99.90;;;;;;4984332;28;20103;-77
2021/01/27 11:45:46;;;;;;;5.78;2.40;;;1.30;99.90;;;;;;4967419;28;20138;-77
2021/01/27 11:48:12;;;;;;;2.95;2.08;;;1.20;99.90;;;;;;4978736;28;20083;-78
2021/01/27 11:50:38;;;;;;;3.38;2.15;;;1.40;99.70;;;;;;4988547;28;20535;-78
2021/01/27 11:53:04;;;;;;;3.00;1.95;;;1.50;98.80;;;;;;4984218;28;20174;-79
2021/01/27 11:55:29;;;;;;;10.93;9.10;;;1.50;99.00;;;;;;5003222;28;20093;-79
2021/01/27 11:57:55;;;;;;;5.75;4.28;;;1.40;98.40;;;;;;4992624;28;20083;-78
2021/01/27 12:00:22;;;;;;;3.72;1.98;;;1.40;99.50;;;;;;4978526;28;20120;-77
2021/01/27 12:02:48;;;;;;;2.53;1.55;;;1.50;97.90;;;;;;4990881;28;20583;-77
2021/01/27 12:05:15;;;;;;;4.50;2.10;;;1.60;96.80;;;;;;4976867;28;20098;-76
2021/01/27 12:07:41;;;;;;;2.50;1.85;;;1.60;97.60;;;;;;4963763;28;20075;-77
2021/01/27 12:10:07;;;;;;;1.55;0.88;;;1.60;97.50;;;;;;4973892;28;20067;-76
2021/01/27 12:12:32;;;;;;;2.00;1.42;;;1.50;96.90;;;;;;4981953;28;20463;-77
2021/01/27 12:14:59;;;;;;;1.42;1.10;;;1.50;96.40;;;;;;4974936;28;20086;-76
2021/01/27 12:17:25;;;;;;;2.25;1.88;;;1.40;98.00;;;;;;4984299;28;20594;-76
2021/01/27 12:19:50;;;;;;;2.75;1.40;;;1.50;96.90;;;;;;4978973;28;20079;-76
2021/01/27 12:22:16;;;;;;;1.48;1.20;;;1.50;97.00;;;;;;4984649;28;20110;-77
2021/01/27 12:24:42;;;;;;;5.18;2.75;;;1.40;99.20;;;;;;4972292;28;20645;-77
2021/01/27 12:27:07;;;;;;;5.30;2.92;;;1.40;98.90;;;;;;4978457;28;20149;-76
2021/01/27 12:29:33;;;;;;;9.38;4.93;;;1.40;99.90;;;;;;4983137;28;20081;-79
2021/01/27 12:31:59;;;;;;;14.20;7.20;;;1.20;99.90;;;;;;4971264;28;20103;-77
2021/01/27 12:34:24;;;;;;;16.88;9.05;;;1.00;99.90;;;;;;4967420;28;20106;-76
2021/01/27 12:36:50;;;;;;;13.68;8.10;;;1.00;99.90;;;;;;4979082;28;20079;-75
2021/01/27 12:39:16;;;;;;;13.57;8.35;;;1.00;99.90;;;;;;4970995;28;20583;-76
2021/01/27 12:42:16;;;;;;;;;;;;;;;;;;;;;
2021/01/27 12:44:44;;;;;;;6.05;4.60;;;1.00;99.90;;;;;;4978230;28;20095;-77
2021/01/27 12:47:10;;;;;;;11.18;5.53;;;0.90;99.90;;;;;;4987038;28;20087;-76
2021/01/27 12:49:35;;;;;;;9.13;6.32;;;0.90;99.90;;;;;;4987064;28;20083;-76
2021/01/27 12:52:01;;;;;;;13.85;8.65;;;0.90;99.90;;;;;;4979311;28;20098;-76
2021/01/27 12:54:27;;;;;;;11.30;6.95;;;1.00;99.90;;;;;;4987503;28;20075;-77
2021/01/27 12:56:52;;;;;;;10.15;5.05;;;0.90;99.90;;;;;;4976590;28;20559;-75
2021/01/27 12:59:18;;;;;;;8.07;4.68;;;1.00;99.90;;;;;;4965764;28;20500;-76
2021/01/27 13:01:43;;;;;;;12.88;8.15;;;1.00;99.90;;;;;;4973182;28;20519;-77
2021/01/27 13:04:09;;;;;;;5.40;3.35;;;1.10;99.90;;;;;;4985350;28;20079;-76
2021/01/27 13:06:35;;;;;;;15.07;3.13;;;1.10;99.90;;;;;;4978239;28;20098;-76
2021/01/27 13:09:02;;;;;;;4.40;2.45;;;1.10;99.90;;;;;;4988763;28;20198;-76
2021/01/27 13:11:28;;;;;;;4.10;2.80;;;1.20;99.90;;;;;;4971611;28;20087;-78
2021/01/27 13:13:54;;;;;;;4.53;3.20;;;1.20;99.90;;;;;;4975954;28;20082;-78
2021/01/27 13:16:19;;;;;;;5.10;2.60;;;1.20;99.90;;;;;;4969028;28;20118;-78
2021/01/27 13:18:45;;;;;;;5.40;3.05;;;1.20;99.90;;;;;;4986284;28;20150;-77
2021/01/27 13:21:10;;;;;;;4.72;3.25;;;1.10;99.90;;;;;;4971155;28;20157;-78